Flight Track Log - Related Links

Times and Time Zones

All times are in EDT time to prevent confusion due to time zone crossing. See the AWE565 flight status page for this flight to view local times or setup timezone preferences in your user account.

Time Position Orientation Groundspeed Altitude Reporting Facility
EDT Latitude Longitude Course Direction KTS MPH feet Rate Location/Type
Thu 01:47:44 AM 33.4390 -112.0020 90° East 25 29  Level FlightAware ADS-B
Thu 01:49:50 AM 33.4390 -111.9960 90° East 25 29 241 Level FlightAware ADS-B
Thu 01:50:00 AM 33.4390 -111.9950 90° East 27 31 363 Level FlightAware ADS-B
Thu 01:50:48 AM 33.4390 -111.9900 90° East 31 36 378 Level FlightAware ADS-B
Thu 01:53:00 AM 33.6154 -112.1154 320° Northwest  Level FlightAware Approximate
Thu 01:53:58 AM 33.4310 -112.0240 334° Northwest 174 200 1,500  Level FlightAware ADS-B
Thu 01:54:00 AM 33.7046 -112.1526 334° Northwest  Level FlightAware Approximate
Thu 01:54:29 AM 33.4320 -112.0520 272° West 173 199 2,800  Level FlightAware ADS-B
Thu 01:54:44 AM 33.4320 -112.0680 270° West 184 212 3,200 1,143 Climbing FlightAware ADS-B
Thu 01:55:11 AM 33.4330 -112.0980 272° West 217 250 3,600 1,556 Climbing FlightAware ADS-B
Thu 01:55:38 AM 33.4350 -112.1330 274° West 233 268 4,600 2,143 Climbing FlightAware ADS-B
Thu 01:56:07 AM 33.4390 -112.1690 278° West 244 281 5,600 2,045 Climbing FlightAware ADS-B
Thu 01:56:22 AM 33.4520 -112.1860 313° West 256 295 6,100 1,935 Climbing FlightAware ADS-B
Thu 01:56:38 AM 33.4700 -112.1920 344° North 268 308 6,600 2,053 Climbing FlightAware ADS-B
Thu 01:57:00 AM 33.4980 -112.1880 North 282 325 7,400 2,286 Climbing FlightAware ADS-B
Thu 01:57:20 AM 33.5240 -112.1810 13° North 289 333 8,200 1,650 Climbing FlightAware ADS-B
Thu 01:57:40 AM 33.5360 -112.1800 North 291 335 8,500 2,182 Climbing FlightAware ADS-B
Thu 01:58:15 AM 33.5880 -112.2140 331° Northwest 305 351 10,200 2,053 Climbing FlightAware ADS-B
Thu 01:58:56 AM 33.6310 -112.2720 312° West 342 394 11,100 1,463 Climbing FlightAware ADS-B
Thu 01:59:37 AM 33.6750 -112.3310 312° West 366 421 12,200 1,590 Climbing FlightAware ADS-B
Thu 02:00:19 AM 33.7230 -112.3980 311° West 388 447 13,300 1,407 Climbing FlightAware ADS-B
Thu 02:00:58 AM 33.7750 -112.4600 315° West 411 473 14,100 1,765 Climbing FlightAware ADS-B
Thu 02:01:44 AM 33.8440 -112.5270 321° Northwest 411 473 15,800 2,023 Climbing FlightAware ADS-B
Thu 02:02:24 AM 33.9030 -112.5840 321° Northwest 418 481 17,000 1,786 Climbing FlightAware ADS-B
Thu 02:03:08 AM 33.9710 -112.6500 321° Northwest 430 495 18,300 1,765 Climbing FlightAware ADS-B
Thu 02:03:49 AM 34.0340 -112.7120 321° Northwest 434 499 19,500 1,778 Climbing FlightAware ADS-B
Thu 02:04:29 AM 34.0970 -112.7740 321° Northwest 438 504 20,700 1,650 Climbing FlightAware ADS-B
Thu 02:05:09 AM 34.1610 -112.8360 321° Northwest 442 509 21,700 1,364 Climbing FlightAware ADS-B
Thu 02:05:57 AM 34.2380 -112.9120 321° Northwest 453 521 22,700 1,319 Climbing FlightAware ADS-B
Thu 02:06:40 AM 34.3080 -112.9810 321° Northwest 460 529 23,700 1,535 Climbing FlightAware ADS-B
Thu 02:07:23 AM 34.3790 -113.0500 321° Northwest 459 528 24,900 1,595 Climbing FlightAware ADS-B
Thu 02:07:59 AM 34.4370 -113.1080 320° Northwest 460 529 25,800 815 Climbing FlightAware ADS-B
Thu 02:08:44 AM 34.5120 -113.1820 321° Northwest 469 540 26,000 136 Climbing FlightAware ADS-B
Thu 02:09:27 AM 34.5870 -113.2560 321° Northwest 470 541 26,000  Level FlightAware ADS-B
Thu 02:10:09 AM 34.6580 -113.3270 321° Northwest 471 542 26,000  Level FlightAware ADS-B
Thu 02:10:49 AM 34.7240 -113.3930 321° Northwest 470 541 26,000  Level FlightAware ADS-B
Thu 02:11:49 AM 34.8230 -113.4900 321° Northwest 470 541 26,000  Level FlightAware ADS-B
Thu 02:12:29 AM 34.8950 -113.5580 322° Northwest 469 540 26,000  Level FlightAware ADS-B
Thu 02:13:05 AM 34.9530 -113.6140 322° Northwest 470 541 26,000  Level FlightAware ADS-B
Thu 02:13:51 AM 35.0330 -113.6910 322° Northwest 468 539 26,000 -467 Level FlightAware ADS-B
Thu 02:14:35 AM 35.1070 -113.7630 321° Northwest 459 528 25,300 -971 Descending FlightAware ADS-B
Thu 02:14:59 AM 35.1460 -113.8000 322° Northwest 457 526 24,900 -1,761 Descending FlightAware ADS-B
Thu 02:16:07 AM 35.2580 -113.9080 322° Northwest 446 513 22,600 -2,158 Descending FlightAware ADS-B
Thu 02:16:53 AM 35.3320 -113.9810 321° Northwest 436 502 20,800 -2,400 Descending FlightAware ADS-B
Thu 02:17:37 AM 35.4020 -114.0500 321° Northwest 421 484 19,000 -2,357 Descending FlightAware ADS-B
Thu 02:18:17 AM 35.4610 -114.1070 322° Northwest 410 472 17,500 -2,286 Descending FlightAware ADS-B
Thu 02:19:01 AM 35.5260 -114.1710 321° Northwest 398 458 15,800 -2,241 Descending FlightAware ADS-B
Thu 02:19:40 AM 35.5830 -114.2260 322° Northwest 385 443 14,400 -1,976 Descending FlightAware ADS-B
Thu 02:20:26 AM 35.6460 -114.2890 321° Northwest 370 426 13,000 -1,535 Descending FlightAware ADS-B
Thu 02:21:06 AM 35.6910 -114.3480 313° West 356 410 12,200 -1,429 Descending FlightAware ADS-B
Thu 02:21:50 AM 35.7370 -114.4180 309° West 343 395 11,000 -1,553 Descending FlightAware ADS-B
Thu 02:22:31 AM 35.7750 -114.4780 308° West 335 386 10,000 -750 Descending FlightAware ADS-B
Thu 02:23:10 AM 35.8130 -114.5360 309° West 311 358 10,000  Level FlightAware ADS-B
Thu 02:23:54 AM 35.8500 -114.5950 308° West 292 336 10,000 -169 Level FlightAware ADS-B
Thu 02:24:21 AM 35.8720 -114.6290 309° West 284 327 9,800 -1,053 Descending FlightAware ADS-B
Thu 02:24:51 AM 35.8970 -114.6690 308° West 289 333 9,000 -1,435 Descending FlightAware ADS-B
Thu 02:25:07 AM 35.9100 -114.6890 309° West 285 328 8,700 -1,500 Descending FlightAware ADS-B
Thu 02:25:35 AM 35.9340 -114.7260 309° West 285 328 7,900 -1,607 Descending FlightAware ADS-B
Thu 02:26:03 AM 35.9560 -114.7610 308° West 283 326 7,200 -1,500 Descending FlightAware ADS-B
Thu 02:26:15 AM 35.9660 -114.7760 309° West 282 325 6,900 -947 Descending FlightAware ADS-B
Thu 02:26:41 AM 35.9870 -114.8090 308° West 270 311 6,600 -444 Descending FlightAware ADS-B
Thu 02:27:09 AM 36.0070 -114.8410 308° West 245 282 6,500 -750 Descending FlightAware ADS-B
Thu 02:27:37 AM 36.0260 -114.8720 307° West 242 278 5,900 -1,435 Descending FlightAware ADS-B
Thu 02:27:55 AM 36.0390 -114.8920 309° West 244 281 5,400 -1,304 Descending FlightAware ADS-B
Thu 02:28:23 AM 36.0580 -114.9220 308° West 234 269 4,900 -667 Descending FlightAware ADS-B
Thu 02:28:49 AM 36.0720 -114.9490 303° West 198 228 4,800 -600 Descending FlightAware ADS-B
Thu 02:29:03 AM 36.0730 -114.9650 274° West 192 221 4,500 -1,263 Descending FlightAware ADS-B
Thu 02:29:27 AM 36.0730 -114.9910 270° West 187 215 4,000 -1,000 Descending FlightAware ADS-B
Thu 02:29:57 AM 36.0740 -115.0220 272° West 175 201 3,600 -706 Descending FlightAware ADS-B
Thu 02:30:18 AM 36.0740 -115.0350 270° West 168 193 3,400 -818 Descending FlightAware ADS-B
Thu 02:30:41 AM 36.0740 -115.0620 270° West 153 176 3,000 -900 Descending FlightAware ADS-B
Thu 02:30:58 AM 36.0740 -115.0770 270° West 151 174 2,800 -750 Descending FlightAware ADS-B
Thu 02:31:29 AM 36.0740 -115.1040 270° West 151 174 2,400 -737 Descending FlightAware ADS-B
Thu 02:31:55 AM 36.0740 -115.1270 270° West 152 175 2,100 -692 Descending FlightAware ADS-B
Thu 02:32:29 AM 36.0740 -115.1490 270° West 52 60 -3,706 Descending FlightAware ADS-B
Thu 02:32:55 AM 36.0740 -115.1560 270° West 52 60  Level FlightAware ADS-B
Thu 02:40:00 AM 36.0667 -115.1500 270° West  Level FlightAware Approximate

Login

Don't have an account? Register now (free) for customized features, flight alerts, and more!